createdAt,value
2022-10-13T00:04:56.428Z,6.57
2022-10-13T00:09:58.305Z,8.77
2022-10-13T00:15:00.024Z,7.78
2022-10-13T00:20:02.093Z,7.05
2022-10-13T00:25:04.660Z,7.00
2022-10-13T00:30:06.914Z,7.63
2022-10-13T00:35:09.156Z,6.90
2022-10-13T00:40:11.362Z,8.65
2022-10-13T00:45:24.948Z,7.33
2022-10-13T00:50:33.576Z,6.67
2022-10-13T00:55:37.735Z,8.18
2022-10-13T01:00:39.512Z,8.20
2022-10-13T01:05:42.687Z,7.50
2022-10-13T01:11:03.305Z,8.13
2022-10-13T01:16:34.205Z,7.80
2022-10-13T01:22:10.345Z,7.57
2022-10-13T01:27:24.149Z,8.33
2022-10-13T01:32:50.428Z,7.63
2022-10-13T01:38:03.146Z,7.05
2022-10-13T01:43:11.676Z,8.13
2022-10-13T01:48:15.374Z,6.65
2022-10-13T01:53:18.385Z,6.78
2022-10-13T01:58:21.736Z,7.45
2022-10-13T02:03:43.746Z,7.23
2022-10-13T02:08:58.253Z,6.53
2022-10-13T02:14:02.951Z,7.87
2022-10-13T02:19:07.831Z,7.40
2022-10-13T02:24:09.842Z,7.05
2022-10-13T02:29:16.705Z,7.35
2022-10-13T02:34:18.372Z,7.80
2022-10-13T02:39:20.213Z,9.10
2022-10-13T02:44:22.139Z,6.53
2022-10-13T02:49:23.907Z,7.13
2022-10-13T02:54:25.638Z,5.83
2022-10-13T02:59:28.722Z,7.70
2022-10-13T03:04:30.445Z,6.88
2022-10-13T03:09:32.203Z,7.22
2022-10-13T03:14:34.148Z,6.68
2022-10-13T03:19:35.905Z,7.65
2022-10-13T03:24:37.535Z,8.18
2022-10-13T03:29:39.175Z,7.20
2022-10-13T03:34:40.838Z,8.13
2022-10-13T03:39:42.592Z,7.60
2022-10-13T03:44:44.282Z,7.75
2022-10-13T03:49:46.027Z,7.60
2022-10-13T03:54:47.696Z,7.57
2022-10-13T03:59:49.383Z,7.10
2022-10-13T04:04:51.120Z,7.35
2022-10-13T04:09:52.809Z,6.70
2022-10-13T04:14:54.494Z,8.32
2022-10-13T04:19:56.147Z,6.72
2022-10-13T04:24:57.830Z,6.97
2022-10-13T04:29:59.652Z,7.32
2022-10-13T04:35:01.432Z,7.05
2022-10-13T04:40:03.422Z,7.20
2022-10-13T04:45:05.571Z,7.20
2022-10-13T04:50:07.588Z,8.07
2022-10-13T04:55:09.448Z,7.97
2022-10-13T05:00:11.916Z,8.80
2022-10-13T05:05:13.642Z,7.90
2022-10-13T05:10:15.389Z,8.15
2022-10-13T05:15:17.095Z,8.07
2022-10-13T05:20:18.854Z,7.38
2022-10-13T05:25:20.541Z,8.00
2022-10-13T05:30:22.224Z,7.07
2022-10-13T05:35:24.611Z,6.90
2022-10-13T05:40:26.274Z,7.67
2022-10-13T05:45:31.994Z,6.60
2022-10-13T05:50:34.703Z,7.70
2022-10-13T05:55:36.413Z,8.67
2022-10-13T06:00:39.119Z,6.97
2022-10-13T06:05:42.316Z,7.97
2022-10-13T06:10:47.689Z,6.88
2022-10-13T06:15:49.535Z,7.57
2022-10-13T06:20:51.249Z,7.32
2022-10-13T06:25:53.952Z,6.68
2022-10-13T06:30:55.588Z,7.18
2022-10-13T06:36:00.527Z,6.90
2022-10-13T06:41:03.850Z,7.45
2022-10-13T06:46:05.739Z,7.30
2022-10-13T06:51:09.808Z,7.40
2022-10-13T06:56:12.399Z,7.45
2022-10-13T07:01:14.241Z,7.63
2022-10-13T07:06:16.516Z,7.60
2022-10-13T07:11:18.213Z,7.78
2022-10-13T07:16:19.906Z,6.93
2022-10-13T07:21:22.290Z,6.37
2022-10-13T07:26:24.020Z,6.97
2022-10-13T07:31:25.846Z,7.25
2022-10-13T07:36:27.563Z,7.75
2022-10-13T07:41:29.966Z,7.65
2022-10-13T07:46:31.630Z,7.45
2022-10-13T07:51:33.292Z,7.82
2022-10-13T07:56:35.004Z,8.15
2022-10-13T08:01:37.308Z,8.60
2022-10-13T08:06:42.164Z,8.18
2022-10-13T08:11:43.833Z,7.35
2022-10-13T08:16:48.762Z,6.90
2022-10-13T08:22:00.806Z,7.60
2022-10-13T08:27:02.520Z,7.07
2022-10-13T08:32:04.328Z,6.00
2022-10-13T08:37:06.314Z,6.33
2022-10-13T08:42:19.721Z,6.17
2022-10-13T08:47:29.979Z,5.93
2022-10-13T08:53:12.952Z,6.75
2022-10-13T08:58:25.619Z,6.93
2022-10-13T09:03:29.425Z,6.90
2022-10-13T09:08:54.896Z,6.70
2022-10-13T09:13:59.500Z,6.25
2022-10-13T09:19:18.599Z,6.38
2022-10-13T09:24:22.196Z,7.10
2022-10-13T09:29:27.150Z,6.65
2022-10-13T09:34:28.869Z,5.37
2022-10-13T09:39:32.044Z,6.40
2022-10-13T09:44:33.888Z,7.33
2022-10-13T09:49:38.515Z,6.00
2022-10-13T09:54:40.147Z,6.33
2022-10-13T09:59:48.528Z,6.85
2022-10-13T10:04:52.984Z,5.65
2022-10-13T10:09:59.660Z,6.00
2022-10-13T10:15:01.544Z,6.45
2022-10-13T10:20:28.320Z,5.50
2022-10-13T10:25:40.864Z,5.00
2022-10-13T10:31:06.721Z,5.47
2022-10-13T10:36:19.489Z,6.50
2022-10-13T10:41:36.278Z,5.45
2022-10-13T10:46:46.186Z,5.95
2022-10-13T10:51:48.961Z,6.13
2022-10-13T10:57:05.682Z,6.53
2022-10-13T11:02:07.294Z,6.50
2022-10-13T11:07:33.537Z,6.50
2022-10-13T11:12:52.263Z,6.90
2022-10-13T11:17:54.307Z,5.87
2022-10-13T11:22:58.754Z,6.97
2022-10-13T11:28:00.409Z,5.97
2022-10-13T11:33:02.103Z,5.78
2022-10-13T11:38:22.120Z,6.47
2022-10-13T11:43:31.843Z,6.35
2022-10-13T11:48:53.829Z,6.78
2022-10-13T11:54:10.595Z,6.25
2022-10-13T11:59:27.497Z,6.87
2022-10-13T12:04:29.236Z,7.17
2022-10-13T12:09:32.149Z,6.90
2022-10-13T12:14:42.434Z,7.43
2022-10-13T12:19:44.141Z,6.57
2022-10-13T12:25:01.432Z,6.80
2022-10-13T12:30:04.648Z,5.82
2022-10-13T12:35:27.656Z,7.22
2022-10-13T12:40:30.088Z,6.90
2022-10-13T12:45:34.305Z,7.22
2022-10-13T12:50:37.371Z,7.72
2022-10-13T12:55:57.979Z,8.18
2022-10-13T13:01:17.282Z,8.20
2022-10-13T13:06:18.899Z,8.13
2022-10-13T13:11:23.101Z,9.00
2022-10-13T13:16:24.870Z,7.63
2022-10-13T13:21:26.578Z,7.80
2022-10-13T13:26:28.265Z,7.65
2022-10-13T13:31:29.966Z,8.13
2022-10-13T13:36:31.999Z,8.57
2022-10-13T13:41:33.678Z,9.35
2022-10-13T13:46:35.353Z,8.57
2022-10-13T13:51:37.201Z,10.73
2022-10-13T13:56:38.865Z,10.73
2022-10-13T14:01:40.569Z,9.77
2022-10-13T14:06:42.290Z,11.32
2022-10-13T14:11:43.986Z,9.95
2022-10-13T14:16:45.719Z,11.23
2022-10-13T14:21:47.448Z,10.97
2022-10-13T14:26:49.099Z,10.40
2022-10-13T14:31:50.791Z,10.73
2022-10-13T14:36:52.658Z,11.40
2022-10-13T14:41:54.641Z,10.93
2022-10-13T14:46:56.312Z,10.48
2022-10-13T14:51:58.004Z,10.30
2022-10-13T14:56:59.694Z,11.07
2022-10-13T15:02:01.402Z,10.23
2022-10-13T15:07:03.116Z,9.45
2022-10-13T15:12:05.237Z,10.15
2022-10-13T15:17:06.909Z,10.88
2022-10-13T15:22:08.638Z,9.95
2022-10-13T15:27:10.313Z,10.63
2022-10-13T15:32:14.430Z,9.55
2022-10-13T15:37:16.135Z,10.20
2022-10-13T15:42:17.941Z,9.65
2022-10-13T15:47:21.629Z,9.50
2022-10-13T15:52:23.766Z,10.83
2022-10-13T15:57:25.750Z,9.38
2022-10-13T16:02:27.465Z,9.25
2022-10-13T16:07:29.172Z,9.05
2022-10-13T16:12:30.886Z,10.03
2022-10-13T16:17:33.170Z,10.33
2022-10-13T16:22:34.863Z,9.35
2022-10-13T16:27:40.404Z,9.63
2022-10-13T16:32:44.861Z,10.65
2022-10-13T16:37:46.721Z,11.20
2022-10-13T16:42:48.387Z,11.05
2022-10-13T16:47:53.103Z,10.60
2022-10-13T16:52:54.775Z,10.27
2022-10-13T16:57:56.652Z,10.83
2022-10-13T17:02:58.357Z,10.60
2022-10-13T17:08:00.036Z,9.43
2022-10-13T17:13:01.723Z,11.88
2022-10-13T17:18:03.434Z,10.52
2022-10-13T17:23:05.213Z,10.73
2022-10-13T17:28:06.898Z,11.32
2022-10-13T17:33:08.856Z,11.52
2022-10-13T17:38:10.532Z,10.45
2022-10-13T17:43:12.222Z,12.30
2022-10-13T17:48:14.645Z,11.48
2022-10-13T17:53:17.095Z,13.15
2022-10-13T17:58:18.823Z,12.73
2022-10-13T18:03:20.477Z,12.82
2022-10-13T18:08:22.124Z,12.77
2022-10-13T18:13:23.806Z,12.70
2022-10-13T18:18:25.488Z,13.63
2022-10-13T18:23:32.927Z,13.33
2022-10-13T18:28:36.698Z,13.57
2022-10-13T18:33:39.188Z,12.52
2022-10-13T18:38:40.920Z,12.27
2022-10-13T18:43:42.716Z,13.67
2022-10-13T18:48:44.416Z,13.07
2022-10-13T18:53:48.732Z,12.87
2022-10-13T18:58:55.669Z,12.82
2022-10-13T19:04:00.516Z,11.98
2022-10-13T19:09:08.280Z,13.20
2022-10-13T19:14:13.522Z,13.85
2022-10-13T19:19:15.254Z,15.03
2022-10-13T19:24:16.949Z,13.77
2022-10-13T19:29:18.616Z,13.02
2022-10-13T19:34:20.342Z,12.90
2022-10-13T19:39:24.095Z,13.27
2022-10-13T19:44:25.915Z,14.15
2022-10-13T19:49:27.666Z,15.07
2022-10-13T19:54:33.799Z,13.77
2022-10-13T19:59:36.856Z,13.77
2022-10-13T20:04:38.522Z,14.93
2022-10-13T20:09:40.234Z,14.48
2022-10-13T20:14:41.956Z,14.63
2022-10-13T20:19:43.706Z,14.00
2022-10-13T20:24:45.373Z,14.57
2022-10-13T20:29:47.067Z,14.20
2022-10-13T20:34:48.755Z,14.40
2022-10-13T20:39:50.404Z,15.27
2022-10-13T20:44:52.110Z,13.63
2022-10-13T20:49:53.888Z,14.38
2022-10-13T20:54:55.627Z,13.38
2022-10-13T20:59:57.307Z,13.05
2022-10-13T21:04:59.161Z,14.13
2022-10-13T21:10:00.843Z,12.90
2022-10-13T21:15:02.808Z,12.65
2022-10-13T21:20:04.925Z,13.00
2022-10-13T21:25:06.904Z,11.67
2022-10-13T21:30:09.172Z,13.37
2022-10-13T21:35:10.868Z,13.45
2022-10-13T21:40:12.619Z,12.68
2022-10-13T21:45:14.301Z,12.48
2022-10-13T21:50:16.109Z,13.38
2022-10-13T21:55:17.871Z,13.60
2022-10-13T22:00:19.963Z,13.63
2022-10-13T22:05:22.544Z,11.85
2022-10-13T22:10:24.238Z,12.70
2022-10-13T22:15:27.018Z,13.05
2022-10-13T22:20:28.793Z,12.70
2022-10-13T22:25:30.467Z,11.68
2022-10-13T22:30:32.110Z,11.73
2022-10-13T22:35:34.661Z,12.17
2022-10-13T22:40:36.354Z,12.03
2022-10-13T22:45:38.065Z,13.57
2022-10-13T22:50:39.716Z,13.20
2022-10-13T22:55:42.517Z,13.45
2022-10-13T23:00:44.156Z,13.35
2022-10-13T23:05:48.976Z,12.93
2022-10-13T23:10:50.661Z,13.57
2022-10-13T23:15:52.361Z,13.48
2022-10-13T23:20:56.882Z,12.75
2022-10-13T23:26:07.525Z,13.82
2022-10-13T23:31:12.397Z,13.53
2022-10-13T23:36:17.680Z,13.33
2022-10-13T23:41:19.437Z,13.32
2022-10-13T23:46:21.226Z,12.23
2022-10-13T23:51:24.926Z,12.63
2022-10-13T23:56:26.622Z,14.40
